sensor_id;sensor_type;location;lat;lon;timestamp;P1;durP1;ratioP1;P2;durP2;ratioP2
37445;SDS011;23307;51.136;14.942;2023-04-03T00:00:53;4.10;;;2.13;;
37445;SDS011;23307;51.136;14.942;2023-04-03T00:03:19;6.00;;;2.23;;
37445;SDS011;23307;51.136;14.942;2023-04-03T00:05:45;2.97;;;1.90;;
37445;SDS011;23307;51.136;14.942;2023-04-03T00:08:11;5.30;;;2.20;;
37445;SDS011;23307;51.136;14.942;2023-04-03T00:10:37;3.33;;;1.70;;
37445;SDS011;23307;51.136;14.942;2023-04-03T00:13:03;4.40;;;2.00;;
37445;SDS011;23307;51.136;14.942;2023-04-03T00:15:30;4.37;;;2.13;;
37445;SDS011;23307;51.136;14.942;2023-04-03T00:17:56;3.73;;;1.80;;
37445;SDS011;23307;51.136;14.942;2023-04-03T00:20:21;3.27;;;1.87;;
37445;SDS011;23307;51.136;14.942;2023-04-03T00:22:47;3.67;;;1.87;;
37445;SDS011;23307;51.136;14.942;2023-04-03T00:25:13;4.93;;;2.10;;
37445;SDS011;23307;51.136;14.942;2023-04-03T00:27:38;4.33;;;2.00;;
37445;SDS011;23307;51.136;14.942;2023-04-03T00:30:05;4.47;;;2.20;;
37445;SDS011;23307;51.136;14.942;2023-04-03T00:32:33;3.90;;;2.03;;
37445;SDS011;23307;51.136;14.942;2023-04-03T00:34:58;4.27;;;1.83;;
37445;SDS011;23307;51.136;14.942;2023-04-03T00:37:24;4.57;;;1.80;;
37445;SDS011;23307;51.136;14.942;2023-04-03T00:39:49;3.23;;;1.70;;
37445;SDS011;23307;51.136;14.942;2023-04-03T00:42:15;6.47;;;2.30;;
37445;SDS011;23307;51.136;14.942;2023-04-03T00:47:07;3.93;;;1.80;;
37445;SDS011;23307;51.136;14.942;2023-04-03T00:49:35;6.83;;;2.10;;
37445;SDS011;23307;51.136;14.942;2023-04-03T00:52:03;3.97;;;2.07;;
37445;SDS011;23307;51.136;14.942;2023-04-03T00:54:31;4.57;;;2.50;;
37445;SDS011;23307;51.136;14.942;2023-04-03T00:56:58;7.13;;;2.10;;
37445;SDS011;23307;51.136;14.942;2023-04-03T00:59:25;3.47;;;1.90;;
37445;SDS011;23307;51.136;14.942;2023-04-03T01:01:55;5.80;;;2.10;;
37445;SDS011;23307;51.136;14.942;2023-04-03T01:04:28;4.97;;;2.40;;
37445;SDS011;23307;51.136;14.942;2023-04-03T01:06:56;4.33;;;2.20;;
37445;SDS011;23307;51.136;14.942;2023-04-03T01:09:24;4.40;;;1.93;;
37445;SDS011;23307;51.136;14.942;2023-04-03T01:11:51;3.30;;;1.90;;
37445;SDS011;23307;51.136;14.942;2023-04-03T01:14:16;3.20;;;2.00;;
37445;SDS011;23307;51.136;14.942;2023-04-03T01:16:42;3.70;;;1.70;;
37445;SDS011;23307;51.136;14.942;2023-04-03T01:19:08;4.27;;;2.03;;
37445;SDS011;23307;51.136;14.942;2023-04-03T01:21:54;3.10;;;1.87;;
37445;SDS011;23307;51.136;14.942;2023-04-03T01:24:31;3.50;;;1.97;;
37445;SDS011;23307;51.136;14.942;2023-04-03T01:27:04;4.83;;;2.10;;
37445;SDS011;23307;51.136;14.942;2023-04-03T01:29:32;4.17;;;2.13;;
37445;SDS011;23307;51.136;14.942;2023-04-03T01:31:59;4.67;;;2.10;;
37445;SDS011;23307;51.136;14.942;2023-04-03T01:34:26;3.20;;;1.87;;
37445;SDS011;23307;51.136;14.942;2023-04-03T01:36:52;7.27;;;2.10;;
37445;SDS011;23307;51.136;14.942;2023-04-03T01:39:18;5.23;;;2.20;;
37445;SDS011;23307;51.136;14.942;2023-04-03T01:41:44;4.47;;;2.40;;
37445;SDS011;23307;51.136;14.942;2023-04-03T01:44:10;4.97;;;2.30;;
37445;SDS011;23307;51.136;14.942;2023-04-03T01:46:36;5.90;;;2.53;;
37445;SDS011;23307;51.136;14.942;2023-04-03T01:49:02;3.47;;;2.03;;
37445;SDS011;23307;51.136;14.942;2023-04-03T01:51:28;6.67;;;2.30;;
37445;SDS011;23307;51.136;14.942;2023-04-03T01:53:54;3.53;;;1.90;;
37445;SDS011;23307;51.136;14.942;2023-04-03T01:56:19;4.07;;;1.67;;
37445;SDS011;23307;51.136;14.942;2023-04-03T01:58:45;3.37;;;1.80;;
37445;SDS011;23307;51.136;14.942;2023-04-03T02:01:10;4.33;;;2.13;;
37445;SDS011;23307;51.136;14.942;2023-04-03T02:03:36;5.60;;;1.90;;
37445;SDS011;23307;51.136;14.942;2023-04-03T02:06:02;4.10;;;1.90;;
37445;SDS011;23307;51.136;14.942;2023-04-03T02:08:27;5.33;;;2.20;;
37445;SDS011;23307;51.136;14.942;2023-04-03T02:10:53;6.80;;;2.43;;
37445;SDS011;23307;51.136;14.942;2023-04-03T02:13:18;4.13;;;2.23;;
37445;SDS011;23307;51.136;14.942;2023-04-03T02:15:44;5.70;;;1.80;;
37445;SDS011;23307;51.136;14.942;2023-04-03T02:18:10;3.67;;;1.87;;
37445;SDS011;23307;51.136;14.942;2023-04-03T02:20:36;5.07;;;2.10;;
37445;SDS011;23307;51.136;14.942;2023-04-03T02:23:02;6.13;;;2.30;;
37445;SDS011;23307;51.136;14.942;2023-04-03T02:25:28;6.43;;;1.90;;
37445;SDS011;23307;51.136;14.942;2023-04-03T02:27:55;6.17;;;2.00;;
37445;SDS011;23307;51.136;14.942;2023-04-03T02:30:21;5.00;;;1.90;;
37445;SDS011;23307;51.136;14.942;2023-04-03T02:32:46;5.23;;;2.10;;
37445;SDS011;23307;51.136;14.942;2023-04-03T02:35:12;8.37;;;1.80;;
37445;SDS011;23307;51.136;14.942;2023-04-03T02:37:37;6.33;;;2.10;;
37445;SDS011;23307;51.136;14.942;2023-04-03T02:40:03;3.97;;;2.20;;
37445;SDS011;23307;51.136;14.942;2023-04-03T02:42:30;3.63;;;2.13;;
37445;SDS011;23307;51.136;14.942;2023-04-03T02:44:55;4.33;;;2.03;;
37445;SDS011;23307;51.136;14.942;2023-04-03T02:47:21;2.90;;;1.60;;
37445;SDS011;23307;51.136;14.942;2023-04-03T02:49:46;5.57;;;2.03;;
37445;SDS011;23307;51.136;14.942;2023-04-03T02:52:13;5.20;;;1.90;;
37445;SDS011;23307;51.136;14.942;2023-04-03T02:54:38;6.07;;;2.13;;
37445;SDS011;23307;51.136;14.942;2023-04-03T02:57:04;6.83;;;1.93;;
37445;SDS011;23307;51.136;14.942;2023-04-03T02:59:30;4.63;;;2.10;;
37445;SDS011;23307;51.136;14.942;2023-04-03T03:01:55;5.23;;;2.10;;
37445;SDS011;23307;51.136;14.942;2023-04-03T03:04:21;3.33;;;1.83;;
37445;SDS011;23307;51.136;14.942;2023-04-03T03:06:47;4.17;;;1.80;;
37445;SDS011;23307;51.136;14.942;2023-04-03T03:09:12;5.77;;;1.80;;
37445;SDS011;23307;51.136;14.942;2023-04-03T03:11:38;4.63;;;1.97;;
37445;SDS011;23307;51.136;14.942;2023-04-03T03:14:04;5.50;;;2.37;;
37445;SDS011;23307;51.136;14.942;2023-04-03T03:16:30;5.13;;;1.87;;
37445;SDS011;23307;51.136;14.942;2023-04-03T03:18:55;4.57;;;1.70;;
37445;SDS011;23307;51.136;14.942;2023-04-03T03:21:21;3.73;;;1.97;;
37445;SDS011;23307;51.136;14.942;2023-04-03T03:23:47;5.70;;;2.00;;
37445;SDS011;23307;51.136;14.942;2023-04-03T03:26:12;5.33;;;1.93;;
37445;SDS011;23307;51.136;14.942;2023-04-03T03:28:38;4.70;;;1.80;;
37445;SDS011;23307;51.136;14.942;2023-04-03T03:31:04;5.47;;;2.17;;
37445;SDS011;23307;51.136;14.942;2023-04-03T03:33:31;4.03;;;2.00;;
37445;SDS011;23307;51.136;14.942;2023-04-03T03:35:56;4.70;;;1.90;;
37445;SDS011;23307;51.136;14.942;2023-04-03T03:38:22;3.27;;;2.00;;
37445;SDS011;23307;51.136;14.942;2023-04-03T03:40:48;3.63;;;1.90;;
37445;SDS011;23307;51.136;14.942;2023-04-03T03:43:15;5.03;;;1.80;;
37445;SDS011;23307;51.136;14.942;2023-04-03T03:45:41;4.07;;;1.87;;
37445;SDS011;23307;51.136;14.942;2023-04-03T03:48:07;3.67;;;1.90;;
37445;SDS011;23307;51.136;14.942;2023-04-03T03:50:32;7.00;;;3.70;;
37445;SDS011;23307;51.136;14.942;2023-04-03T03:52:58;7.93;;;4.47;;
37445;SDS011;23307;51.136;14.942;2023-04-03T03:55:24;6.63;;;3.60;;
37445;SDS011;23307;51.136;14.942;2023-04-03T03:57:50;6.83;;;3.33;;
37445;SDS011;23307;51.136;14.942;2023-04-03T04:00:16;4.67;;;2.77;;
37445;SDS011;23307;51.136;14.942;2023-04-03T04:02:41;6.20;;;2.90;;
37445;SDS011;23307;51.136;14.942;2023-04-03T04:05:07;6.37;;;2.87;;
37445;SDS011;23307;51.136;14.942;2023-04-03T04:07:33;2.03;;;1.70;;
37445;SDS011;23307;51.136;14.942;2023-04-03T04:09:58;5.07;;;2.00;;
37445;SDS011;23307;51.136;14.942;2023-04-03T04:12:24;5.23;;;2.10;;
37445;SDS011;23307;51.136;14.942;2023-04-03T04:14:50;3.83;;;2.20;;
37445;SDS011;23307;51.136;14.942;2023-04-03T04:17:15;3.20;;;1.87;;
37445;SDS011;23307;51.136;14.942;2023-04-03T04:19:41;3.63;;;2.30;;
37445;SDS011;23307;51.136;14.942;2023-04-03T04:22:06;6.80;;;2.10;;
37445;SDS011;23307;51.136;14.942;2023-04-03T04:24:32;5.40;;;2.00;;
37445;SDS011;23307;51.136;14.942;2023-04-03T04:26:57;2.80;;;1.83;;
37445;SDS011;23307;51.136;14.942;2023-04-03T04:29:23;5.27;;;1.97;;
37445;SDS011;23307;51.136;14.942;2023-04-03T04:31:49;4.87;;;2.10;;
37445;SDS011;23307;51.136;14.942;2023-04-03T04:34:14;4.20;;;2.20;;
37445;SDS011;23307;51.136;14.942;2023-04-03T04:36:40;4.90;;;2.00;;
37445;SDS011;23307;51.136;14.942;2023-04-03T04:39:05;5.93;;;2.23;;
37445;SDS011;23307;51.136;14.942;2023-04-03T04:41:31;5.20;;;2.30;;
37445;SDS011;23307;51.136;14.942;2023-04-03T04:43:57;4.50;;;2.77;;
37445;SDS011;23307;51.136;14.942;2023-04-03T04:46:22;6.73;;;2.27;;
37445;SDS011;23307;51.136;14.942;2023-04-03T04:48:48;6.17;;;2.43;;
37445;SDS011;23307;51.136;14.942;2023-04-03T04:51:14;4.87;;;2.13;;
37445;SDS011;23307;51.136;14.942;2023-04-03T04:53:40;5.60;;;2.00;;
37445;SDS011;23307;51.136;14.942;2023-04-03T04:56:06;4.57;;;2.00;;
37445;SDS011;23307;51.136;14.942;2023-04-03T04:58:32;3.40;;;2.20;;
37445;SDS011;23307;51.136;14.942;2023-04-03T05:00:58;5.03;;;2.23;;
37445;SDS011;23307;51.136;14.942;2023-04-03T05:03:27;4.30;;;2.17;;
37445;SDS011;23307;51.136;14.942;2023-04-03T05:05:53;6.37;;;2.47;;
37445;SDS011;23307;51.136;14.942;2023-04-03T05:08:19;4.53;;;2.50;;
37445;SDS011;23307;51.136;14.942;2023-04-03T05:10:44;6.57;;;2.33;;
37445;SDS011;23307;51.136;14.942;2023-04-03T05:13:11;6.80;;;2.30;;
37445;SDS011;23307;51.136;14.942;2023-04-03T05:15:36;5.10;;;2.40;;
37445;SDS011;23307;51.136;14.942;2023-04-03T05:18:02;5.27;;;2.70;;
37445;SDS011;23307;51.136;14.942;2023-04-03T05:20:27;5.83;;;2.33;;
37445;SDS011;23307;51.136;14.942;2023-04-03T05:22:53;5.60;;;2.30;;
37445;SDS011;23307;51.136;14.942;2023-04-03T05:25:18;5.00;;;2.00;;
37445;SDS011;23307;51.136;14.942;2023-04-03T05:27:44;3.70;;;2.00;;
37445;SDS011;23307;51.136;14.942;2023-04-03T05:30:10;4.20;;;2.30;;
37445;SDS011;23307;51.136;14.942;2023-04-03T05:32:35;6.43;;;2.20;;
37445;SDS011;23307;51.136;14.942;2023-04-03T05:35:01;6.17;;;2.80;;
37445;SDS011;23307;51.136;14.942;2023-04-03T05:37:26;4.20;;;1.93;;
37445;SDS011;23307;51.136;14.942;2023-04-03T05:39:52;4.20;;;1.90;;
37445;SDS011;23307;51.136;14.942;2023-04-03T05:42:17;5.50;;;2.60;;
37445;SDS011;23307;51.136;14.942;2023-04-03T05:44:43;4.77;;;2.40;;
37445;SDS011;23307;51.136;14.942;2023-04-03T05:47:10;5.07;;;2.30;;
37445;SDS011;23307;51.136;14.942;2023-04-03T05:49:36;3.83;;;1.90;;
37445;SDS011;23307;51.136;14.942;2023-04-03T05:52:05;6.50;;;2.10;;
37445;SDS011;23307;51.136;14.942;2023-04-03T05:54:31;5.63;;;2.40;;
37445;SDS011;23307;51.136;14.942;2023-04-03T05:56:57;7.03;;;2.50;;
37445;SDS011;23307;51.136;14.942;2023-04-03T05:59:22;7.67;;;2.23;;
37445;SDS011;23307;51.136;14.942;2023-04-03T06:01:48;5.97;;;2.10;;
37445;SDS011;23307;51.136;14.942;2023-04-03T06:04:14;7.57;;;2.40;;
37445;SDS011;23307;51.136;14.942;2023-04-03T06:06:49;4.63;;;2.20;;
37445;SDS011;23307;51.136;14.942;2023-04-03T06:09:20;3.40;;;2.10;;
37445;SDS011;23307;51.136;14.942;2023-04-03T06:11:47;5.20;;;2.20;;
37445;SDS011;23307;51.136;14.942;2023-04-03T06:14:13;3.00;;;2.07;;
37445;SDS011;23307;51.136;14.942;2023-04-03T06:16:38;5.27;;;2.20;;
37445;SDS011;23307;51.136;14.942;2023-04-03T06:19:05;5.60;;;2.37;;
37445;SDS011;23307;51.136;14.942;2023-04-03T06:21:31;3.10;;;2.30;;
37445;SDS011;23307;51.136;14.942;2023-04-03T06:23:57;5.80;;;1.80;;
37445;SDS011;23307;51.136;14.942;2023-04-03T06:26:22;5.60;;;2.20;;
37445;SDS011;23307;51.136;14.942;2023-04-03T06:28:48;4.63;;;2.07;;
37445;SDS011;23307;51.136;14.942;2023-04-03T06:31:13;3.70;;;2.10;;
37445;SDS011;23307;51.136;14.942;2023-04-03T06:33:39;6.77;;;1.90;;
37445;SDS011;23307;51.136;14.942;2023-04-03T06:36:05;3.33;;;1.70;;
37445;SDS011;23307;51.136;14.942;2023-04-03T06:38:31;8.13;;;2.30;;
37445;SDS011;23307;51.136;14.942;2023-04-03T06:40:58;4.90;;;1.77;;
37445;SDS011;23307;51.136;14.942;2023-04-03T06:43:23;6.67;;;2.30;;
37445;SDS011;23307;51.136;14.942;2023-04-03T06:45:49;6.67;;;1.93;;
37445;SDS011;23307;51.136;14.942;2023-04-03T06:48:15;3.80;;;1.73;;
37445;SDS011;23307;51.136;14.942;2023-04-03T06:50:41;5.00;;;2.13;;
37445;SDS011;23307;51.136;14.942;2023-04-03T06:53:07;3.70;;;1.70;;
37445;SDS011;23307;51.136;14.942;2023-04-03T06:55:33;4.30;;;2.20;;
37445;SDS011;23307;51.136;14.942;2023-04-03T06:57:58;8.93;;;3.07;;
37445;SDS011;23307;51.136;14.942;2023-04-03T07:00:24;5.33;;;2.03;;
37445;SDS011;23307;51.136;14.942;2023-04-03T07:02:50;7.67;;;2.33;;
37445;SDS011;23307;51.136;14.942;2023-04-03T07:05:15;8.20;;;2.97;;
37445;SDS011;23307;51.136;14.942;2023-04-03T07:07:41;4.27;;;2.20;;
37445;SDS011;23307;51.136;14.942;2023-04-03T07:10:06;4.90;;;2.33;;
37445;SDS011;23307;51.136;14.942;2023-04-03T07:12:32;2.93;;;1.97;;
37445;SDS011;23307;51.136;14.942;2023-04-03T07:14:58;4.73;;;1.83;;
37445;SDS011;23307;51.136;14.942;2023-04-03T07:17:24;6.50;;;1.93;;
37445;SDS011;23307;51.136;14.942;2023-04-03T07:19:50;6.80;;;2.07;;
37445;SDS011;23307;51.136;14.942;2023-04-03T07:22:16;3.97;;;1.63;;
37445;SDS011;23307;51.136;14.942;2023-04-03T07:24:41;5.03;;;1.83;;
37445;SDS011;23307;51.136;14.942;2023-04-03T07:27:07;6.30;;;2.10;;
37445;SDS011;23307;51.136;14.942;2023-04-03T07:29:33;4.53;;;1.80;;
37445;SDS011;23307;51.136;14.942;2023-04-03T07:31:59;3.87;;;2.03;;
37445;SDS011;23307;51.136;14.942;2023-04-03T07:34:25;5.73;;;2.00;;
37445;SDS011;23307;51.136;14.942;2023-04-03T07:36:50;7.93;;;2.27;;
37445;SDS011;23307;51.136;14.942;2023-04-03T07:39:16;4.80;;;1.90;;
37445;SDS011;23307;51.136;14.942;2023-04-03T07:41:41;5.67;;;2.37;;
37445;SDS011;23307;51.136;14.942;2023-04-03T07:44:07;4.37;;;1.80;;
37445;SDS011;23307;51.136;14.942;2023-04-03T07:46:34;4.33;;;1.80;;
37445;SDS011;23307;51.136;14.942;2023-04-03T07:49:00;5.50;;;1.93;;
37445;SDS011;23307;51.136;14.942;2023-04-03T07:51:26;6.57;;;2.10;;
37445;SDS011;23307;51.136;14.942;2023-04-03T07:53:53;3.30;;;1.67;;
37445;SDS011;23307;51.136;14.942;2023-04-03T07:56:18;3.67;;;1.80;;
37445;SDS011;23307;51.136;14.942;2023-04-03T07:58:45;6.63;;;2.13;;
37445;SDS011;23307;51.136;14.942;2023-04-03T08:01:11;7.47;;;1.80;;
37445;SDS011;23307;51.136;14.942;2023-04-03T08:03:36;5.67;;;2.20;;
37445;SDS011;23307;51.136;14.942;2023-04-03T08:06:04;3.07;;;1.70;;
37445;SDS011;23307;51.136;14.942;2023-04-03T08:08:31;4.80;;;1.90;;
37445;SDS011;23307;51.136;14.942;2023-04-03T08:10:58;6.70;;;1.90;;
37445;SDS011;23307;51.136;14.942;2023-04-03T08:13:25;3.20;;;1.97;;
37445;SDS011;23307;51.136;14.942;2023-04-03T08:15:51;6.20;;;1.70;;
37445;SDS011;23307;51.136;14.942;2023-04-03T08:18:17;5.30;;;2.03;;
37445;SDS011;23307;51.136;14.942;2023-04-03T08:20:43;4.00;;;1.97;;
37445;SDS011;23307;51.136;14.942;2023-04-03T08:23:10;5.33;;;1.80;;
37445;SDS011;23307;51.136;14.942;2023-04-03T08:25:39;4.93;;;2.00;;
37445;SDS011;23307;51.136;14.942;2023-04-03T08:28:05;2.73;;;1.73;;
37445;SDS011;23307;51.136;14.942;2023-04-03T08:30:31;2.73;;;1.60;;
37445;SDS011;23307;51.136;14.942;2023-04-03T08:32:57;5.63;;;2.20;;
37445;SDS011;23307;51.136;14.942;2023-04-03T08:35:24;4.77;;;1.63;;
37445;SDS011;23307;51.136;14.942;2023-04-03T08:37:50;4.10;;;1.60;;
37445;SDS011;23307;51.136;14.942;2023-04-03T08:40:16;4.40;;;1.70;;
37445;SDS011;23307;51.136;14.942;2023-04-03T08:48:24;3.80;;;1.57;;
37445;SDS011;23307;51.136;14.942;2023-04-03T08:50:59;6.17;;;1.50;;
37445;SDS011;23307;51.136;14.942;2023-04-03T08:53:30;5.70;;;1.53;;
37445;SDS011;23307;51.136;14.942;2023-04-03T08:56:02;5.13;;;1.53;;
37445;SDS011;23307;51.136;14.942;2023-04-03T08:58:34;4.40;;;1.77;;
37445;SDS011;23307;51.136;14.942;2023-04-03T09:01:21;3.27;;;1.40;;
37445;SDS011;23307;51.136;14.942;2023-04-03T09:03:54;5.13;;;1.43;;
37445;SDS011;23307;51.136;14.942;2023-04-03T09:09:05;3.80;;;1.50;;
37445;SDS011;23307;51.136;14.942;2023-04-03T09:11:50;4.27;;;1.53;;
37445;SDS011;23307;51.136;14.942;2023-04-03T09:14:38;4.07;;;1.50;;
37445;SDS011;23307;51.136;14.942;2023-04-03T09:17:12;2.30;;;1.50;;
37445;SDS011;23307;51.136;14.942;2023-04-03T09:20:04;2.33;;;1.60;;
37445;SDS011;23307;51.136;14.942;2023-04-03T09:22:44;3.87;;;1.50;;
37445;SDS011;23307;51.136;14.942;2023-04-03T09:25:17;6.03;;;1.40;;
37445;SDS011;23307;51.136;14.942;2023-04-03T09:27:48;4.00;;;1.37;;
37445;SDS011;23307;51.136;14.942;2023-04-03T09:30:16;1.93;;;1.20;;
37445;SDS011;23307;51.136;14.942;2023-04-03T09:32:44;3.30;;;1.20;;
37445;SDS011;23307;51.136;14.942;2023-04-03T09:35:34;3.43;;;1.17;;
37445;SDS011;23307;51.136;14.942;2023-04-03T09:40:37;2.53;;;1.40;;
37445;SDS011;23307;51.136;14.942;2023-04-03T09:45:41;1.40;;;1.23;;
37445;SDS011;23307;51.136;14.942;2023-04-03T09:53:37;2.43;;;0.80;;
37445;SDS011;23307;51.136;14.942;2023-04-03T09:56:26;2.90;;;1.27;;
37445;SDS011;23307;51.136;14.942;2023-04-03T10:01:30;1.97;;;1.20;;
37445;SDS011;23307;51.136;14.942;2023-04-03T10:04:04;2.88;;;1.30;;
37445;SDS011;23307;51.136;14.942;2023-04-03T10:06:51;3.73;;;1.97;;
37445;SDS011;23307;51.136;14.942;2023-04-03T10:09:20;5.17;;;1.80;;
37445;SDS011;23307;51.136;14.942;2023-04-03T10:12:03;2.43;;;1.40;;
37445;SDS011;23307;51.136;14.942;2023-04-03T10:14:39;2.10;;;1.43;;
37445;SDS011;23307;51.136;14.942;2023-04-03T10:17:36;3.80;;;1.43;;
37445;SDS011;23307;51.136;14.942;2023-04-03T10:20:33;2.03;;;1.60;;
37445;SDS011;23307;51.136;14.942;2023-04-03T10:25:40;2.80;;;1.60;;
37445;SDS011;23307;51.136;14.942;2023-04-03T10:28:47;2.67;;;1.10;;
37445;SDS011;23307;51.136;14.942;2023-04-03T10:34:20;2.77;;;1.10;;
37445;SDS011;23307;51.136;14.942;2023-04-03T10:37:01;3.37;;;1.50;;
37445;SDS011;23307;51.136;14.942;2023-04-03T10:39:59;3.37;;;1.27;;
37445;SDS011;23307;51.136;14.942;2023-04-03T10:42:39;2.33;;;1.20;;
37445;SDS011;23307;51.136;14.942;2023-04-03T10:45:26;2.40;;;1.20;;
37445;SDS011;23307;51.136;14.942;2023-04-03T10:48:01;2.53;;;1.37;;
37445;SDS011;23307;51.136;14.942;2023-04-03T10:56:16;3.77;;;1.40;;
37445;SDS011;23307;51.136;14.942;2023-04-03T10:58:44;3.73;;;1.33;;
37445;SDS011;23307;51.136;14.942;2023-04-03T11:01:15;1.60;;;1.07;;
37445;SDS011;23307;51.136;14.942;2023-04-03T11:03:45;2.40;;;1.20;;
37445;SDS011;23307;51.136;14.942;2023-04-03T11:06:15;2.07;;;1.10;;
37445;SDS011;23307;51.136;14.942;2023-04-03T11:08:48;4.17;;;1.27;;
37445;SDS011;23307;51.136;14.942;2023-04-03T11:11:22;1.30;;;0.97;;
37445;SDS011;23307;51.136;14.942;2023-04-03T11:13:54;1.47;;;1.20;;
37445;SDS011;23307;51.136;14.942;2023-04-03T11:16:29;2.50;;;1.40;;
37445;SDS011;23307;51.136;14.942;2023-04-03T11:19:01;3.40;;;1.00;;
37445;SDS011;23307;51.136;14.942;2023-04-03T11:21:44;4.00;;;1.47;;
37445;SDS011;23307;51.136;14.942;2023-04-03T11:24:25;3.03;;;1.60;;
37445;SDS011;23307;51.136;14.942;2023-04-03T11:26:53;3.47;;;1.40;;
37445;SDS011;23307;51.136;14.942;2023-04-03T11:29:22;4.20;;;1.37;;
37445;SDS011;23307;51.136;14.942;2023-04-03T11:34:55;3.97;;;1.70;;
37445;SDS011;23307;51.136;14.942;2023-04-03T11:40:28;2.50;;;1.40;;
37445;SDS011;23307;51.136;14.942;2023-04-03T11:45:27;1.40;;;1.30;;
37445;SDS011;23307;51.136;14.942;2023-04-03T11:53:09;4.20;;;1.30;;
37445;SDS011;23307;51.136;14.942;2023-04-03T11:55:54;2.83;;;1.33;;
37445;SDS011;23307;51.136;14.942;2023-04-03T11:58:31;2.00;;;1.30;;
37445;SDS011;23307;51.136;14.942;2023-04-03T12:01:10;2.20;;;1.10;;
37445;SDS011;23307;51.136;14.942;2023-04-03T12:13:38;1.43;;;1.20;;
37445;SDS011;23307;51.136;14.942;2023-04-03T12:16:19;3.40;;;1.90;;
37445;SDS011;23307;51.136;14.942;2023-04-03T12:21:21;1.40;;;1.13;;
37445;SDS011;23307;51.136;14.942;2023-04-03T12:24:03;2.63;;;1.40;;
37445;SDS011;23307;51.136;14.942;2023-04-03T12:26:44;2.70;;;1.53;;
37445;SDS011;23307;51.136;14.942;2023-04-03T12:29:27;3.60;;;1.50;;
37445;SDS011;23307;51.136;14.942;2023-04-03T12:35:17;3.87;;;1.47;;
37445;SDS011;23307;51.136;14.942;2023-04-03T12:51:13;2.33;;;1.80;;
37445;SDS011;23307;51.136;14.942;2023-04-03T12:53:44;2.50;;;1.40;;
37445;SDS011;23307;51.136;14.942;2023-04-03T12:56:21;3.17;;;1.40;;
37445;SDS011;23307;51.136;14.942;2023-04-03T12:58:48;3.00;;;1.40;;
37445;SDS011;23307;51.136;14.942;2023-04-03T13:01:16;2.20;;;1.30;;
37445;SDS011;23307;51.136;14.942;2023-04-03T13:03:44;2.80;;;1.10;;
37445;SDS011;23307;51.136;14.942;2023-04-03T13:06:21;3.67;;;1.40;;
37445;SDS011;23307;51.136;14.942;2023-04-03T13:08:58;2.63;;;1.20;;
37445;SDS011;23307;51.136;14.942;2023-04-03T13:11:33;2.57;;;1.27;;
37445;SDS011;23307;51.136;14.942;2023-04-03T13:14:12;2.87;;;1.40;;
37445;SDS011;23307;51.136;14.942;2023-04-03T13:16:41;3.53;;;1.30;;
37445;SDS011;23307;51.136;14.942;2023-04-03T13:19:06;2.50;;;1.20;;
37445;SDS011;23307;51.136;14.942;2023-04-03T13:21:41;4.43;;;1.43;;
37445;SDS011;23307;51.136;14.942;2023-04-03T13:24:08;2.43;;;1.50;;
37445;SDS011;23307;51.136;14.942;2023-04-03T13:26:34;2.70;;;1.47;;
37445;SDS011;23307;51.136;14.942;2023-04-03T13:29:02;2.63;;;1.70;;
37445;SDS011;23307;51.136;14.942;2023-04-03T13:31:32;2.53;;;1.53;;
37445;SDS011;23307;51.136;14.942;2023-04-03T13:34:07;3.07;;;1.33;;
37445;SDS011;23307;51.136;14.942;2023-04-03T13:36:45;2.07;;;1.37;;
37445;SDS011;23307;51.136;14.942;2023-04-03T13:39:30;1.80;;;1.20;;
37445;SDS011;23307;51.136;14.942;2023-04-03T13:41:58;2.10;;;1.20;;
37445;SDS011;23307;51.136;14.942;2023-04-03T13:44:39;3.63;;;1.40;;
37445;SDS011;23307;51.136;14.942;2023-04-03T13:50:13;2.13;;;1.33;;
37445;SDS011;23307;51.136;14.942;2023-04-03T13:52:49;2.83;;;1.33;;
37445;SDS011;23307;51.136;14.942;2023-04-03T13:55:22;2.83;;;1.53;;
37445;SDS011;23307;51.136;14.942;2023-04-03T13:57:49;2.63;;;1.30;;
37445;SDS011;23307;51.136;14.942;2023-04-03T14:00:30;2.87;;;1.10;;
37445;SDS011;23307;51.136;14.942;2023-04-03T14:03:24;2.37;;;1.50;;
37445;SDS011;23307;51.136;14.942;2023-04-03T14:05:54;3.37;;;1.70;;
37445;SDS011;23307;51.136;14.942;2023-04-03T14:08:20;1.80;;;1.30;;
37445;SDS011;23307;51.136;14.942;2023-04-03T14:10:46;2.53;;;1.43;;
37445;SDS011;23307;51.136;14.942;2023-04-03T14:13:15;4.37;;;1.40;;
37445;SDS011;23307;51.136;14.942;2023-04-03T14:15:42;2.73;;;1.40;;
37445;SDS011;23307;51.136;14.942;2023-04-03T14:18:12;4.13;;;1.40;;
37445;SDS011;23307;51.136;14.942;2023-04-03T14:20:39;2.40;;;1.70;;
37445;SDS011;23307;51.136;14.942;2023-04-03T14:23:04;3.27;;;1.70;;
37445;SDS011;23307;51.136;14.942;2023-04-03T14:25:29;4.60;;;1.63;;
37445;SDS011;23307;51.136;14.942;2023-04-03T14:27:55;3.63;;;1.77;;
37445;SDS011;23307;51.136;14.942;2023-04-03T14:30:25;2.30;;;1.20;;
37445;SDS011;23307;51.136;14.942;2023-04-03T14:32:53;2.13;;;1.50;;
37445;SDS011;23307;51.136;14.942;2023-04-03T14:35:19;1.60;;;1.33;;
37445;SDS011;23307;51.136;14.942;2023-04-03T14:37:45;2.80;;;1.50;;
37445;SDS011;23307;51.136;14.942;2023-04-03T14:40:17;3.23;;;1.40;;
37445;SDS011;23307;51.136;14.942;2023-04-03T14:42:47;2.17;;;1.20;;
37445;SDS011;23307;51.136;14.942;2023-04-03T14:45:14;3.43;;;1.83;;
37445;SDS011;23307;51.136;14.942;2023-04-03T14:48:02;2.90;;;1.83;;
37445;SDS011;23307;51.136;14.942;2023-04-03T14:50:27;1.90;;;1.33;;
37445;SDS011;23307;51.136;14.942;2023-04-03T14:52:54;4.73;;;1.60;;
37445;SDS011;23307;51.136;14.942;2023-04-03T14:55:23;2.10;;;1.23;;
37445;SDS011;23307;51.136;14.942;2023-04-03T14:57:50;2.30;;;1.60;;
37445;SDS011;23307;51.136;14.942;2023-04-03T15:00:16;3.83;;;2.30;;
37445;SDS011;23307;51.136;14.942;2023-04-03T15:02:44;3.70;;;1.77;;
37445;SDS011;23307;51.136;14.942;2023-04-03T15:05:10;2.03;;;1.60;;
37445;SDS011;23307;51.136;14.942;2023-04-03T15:07:37;2.23;;;1.40;;
37445;SDS011;23307;51.136;14.942;2023-04-03T15:10:19;2.17;;;1.50;;
37445;SDS011;23307;51.136;14.942;2023-04-03T15:12:50;3.33;;;1.98;;
37445;SDS011;23307;51.136;14.942;2023-04-03T15:15:16;5.40;;;1.87;;
37445;SDS011;23307;51.136;14.942;2023-04-03T15:17:44;2.80;;;1.60;;
37445;SDS011;23307;51.136;14.942;2023-04-03T15:20:16;2.47;;;1.53;;
37445;SDS011;23307;51.136;14.942;2023-04-03T15:22:43;1.23;;;1.13;;
37445;SDS011;23307;51.136;14.942;2023-04-03T15:25:09;2.87;;;1.60;;
37445;SDS011;23307;51.136;14.942;2023-04-03T15:27:35;4.73;;;1.73;;
37445;SDS011;23307;51.136;14.942;2023-04-03T15:30:03;4.27;;;2.00;;
37445;SDS011;23307;51.136;14.942;2023-04-03T15:32:30;2.60;;;1.90;;
37445;SDS011;23307;51.136;14.942;2023-04-03T15:34:55;3.63;;;1.53;;
37445;SDS011;23307;51.136;14.942;2023-04-03T15:37:21;3.27;;;1.60;;
37445;SDS011;23307;51.136;14.942;2023-04-03T15:39:46;1.77;;;1.57;;
37445;SDS011;23307;51.136;14.942;2023-04-03T15:42:12;2.43;;;1.67;;
37445;SDS011;23307;51.136;14.942;2023-04-03T15:44:38;2.33;;;1.77;;
37445;SDS011;23307;51.136;14.942;2023-04-03T15:47:03;4.50;;;1.83;;
37445;SDS011;23307;51.136;14.942;2023-04-03T15:49:29;4.33;;;1.90;;
37445;SDS011;23307;51.136;14.942;2023-04-03T15:51:57;3.73;;;2.00;;
37445;SDS011;23307;51.136;14.942;2023-04-03T15:54:23;4.53;;;1.90;;
37445;SDS011;23307;51.136;14.942;2023-04-03T15:56:49;2.00;;;1.53;;
37445;SDS011;23307;51.136;14.942;2023-04-03T15:59:15;3.13;;;1.90;;
37445;SDS011;23307;51.136;14.942;2023-04-03T16:01:40;2.83;;;1.53;;
37445;SDS011;23307;51.136;14.942;2023-04-03T16:04:07;3.83;;;1.80;;